createdAt,value
2023-02-05T00:00:58.133Z,52.64
2023-02-05T00:03:43.301Z,54.69
2023-02-05T00:06:12.880Z,53.81
2023-02-05T00:08:42.399Z,53.97
2023-02-05T00:11:11.681Z,54.52
2023-02-05T00:13:43.950Z,54.60
2023-02-05T00:16:15.326Z,53.33
2023-02-05T00:18:46.632Z,52.35
2023-02-05T00:21:16.931Z,53.81
2023-02-05T00:23:46.998Z,53.60
2023-02-05T00:26:16.349Z,54.51
2023-02-05T00:28:47.081Z,53.85
2023-02-05T00:31:19.847Z,52.98
2023-02-05T00:33:52.646Z,53.82
2023-02-05T00:36:23.126Z,54.17
2023-02-05T00:38:53.747Z,53.58
2023-02-05T00:41:23.026Z,54.87
2023-02-05T00:43:52.682Z,54.13
2023-02-05T00:46:21.916Z,54.95
2023-02-05T00:48:52.728Z,54.70
2023-02-05T00:51:21.840Z,55.52
2023-02-05T00:53:51.435Z,54.01
2023-02-05T00:56:20.579Z,54.24
2023-02-05T00:58:51.308Z,54.29
2023-02-05T01:01:20.598Z,54.76
2023-02-05T01:03:51.655Z,54.24
2023-02-05T01:06:21.058Z,54.79
2023-02-05T01:08:50.634Z,55.37
2023-02-05T01:11:20.190Z,55.62
2023-02-05T01:13:49.710Z,55.79
2023-02-05T01:16:18.986Z,56.48
2023-02-05T01:18:48.486Z,54.46
2023-02-05T01:21:19.051Z,54.48
2023-02-05T01:23:48.720Z,56.07
2023-02-05T01:26:17.980Z,55.60
2023-02-05T01:28:48.634Z,56.24
2023-02-05T01:31:18.082Z,55.76
2023-02-05T01:33:47.648Z,56.88
2023-02-05T01:36:18.142Z,54.54
2023-02-05T01:38:48.943Z,54.25
2023-02-05T01:41:18.184Z,56.12
2023-02-05T01:44:09.251Z,54.68
2023-02-05T01:46:40.260Z,55.40
2023-02-05T01:49:12.630Z,56.03
2023-02-05T01:51:45.023Z,56.34
2023-02-05T01:54:15.105Z,55.44
2023-02-05T01:56:50.993Z,56.05
2023-02-05T01:59:24.823Z,55.64
2023-02-05T02:01:55.225Z,55.60
2023-02-05T02:04:35.899Z,56.69
2023-02-05T02:07:09.734Z,56.84
2023-02-05T02:09:41.009Z,56.14
2023-02-05T02:12:11.646Z,54.24
2023-02-05T02:14:43.651Z,55.37
2023-02-05T02:17:14.275Z,56.79
2023-02-05T02:19:51.874Z,56.56
2023-02-05T02:22:47.493Z,55.54
2023-02-05T02:25:53.832Z,56.43
2023-02-05T02:28:30.687Z,54.59
2023-02-05T02:31:05.553Z,56.21
2023-02-05T02:33:38.770Z,56.18
2023-02-05T02:36:14.408Z,55.36
2023-02-05T02:38:46.584Z,54.93
2023-02-05T02:41:20.152Z,55.47
2023-02-05T02:43:54.780Z,55.48
2023-02-05T02:46:28.645Z,55.40
2023-02-05T02:49:01.704Z,56.25
2023-02-05T02:51:33.155Z,56.02
2023-02-05T02:54:07.919Z,56.06
2023-02-05T02:56:40.162Z,54.08
2023-02-05T02:59:15.361Z,55.22
2023-02-05T03:01:53.375Z,53.81
2023-02-05T03:04:26.921Z,54.37
2023-02-05T03:07:03.083Z,54.05
2023-02-05T03:09:40.809Z,56.26
2023-02-05T03:12:10.563Z,56.73
2023-02-05T03:14:41.814Z,54.87
2023-02-05T03:17:18.574Z,55.75
2023-02-05T03:19:52.065Z,56.09
2023-02-05T03:22:21.632Z,56.75
2023-02-05T03:24:52.140Z,55.53
2023-02-05T03:27:23.888Z,55.01
2023-02-05T03:29:55.229Z,56.23
2023-02-05T03:33:50.578Z,55.87
2023-02-05T03:36:27.444Z,56.44
2023-02-05T03:39:18.772Z,56.88
2023-02-05T03:42:00.112Z,56.21
2023-02-05T03:45:05.733Z,56.24
2023-02-05T03:47:52.476Z,55.46
2023-02-05T03:50:28.067Z,56.83
2023-02-05T03:53:05.992Z,55.99
2023-02-05T03:55:42.280Z,55.94
2023-02-05T03:58:16.473Z,56.43
2023-02-05T04:00:47.660Z,56.44
2023-02-05T04:03:19.141Z,56.23
2023-02-05T04:05:48.855Z,57.02
2023-02-05T04:08:18.230Z,55.87
2023-02-05T04:10:51.667Z,56.15
2023-02-05T04:13:20.871Z,56.45
2023-02-05T04:15:51.704Z,56.10
2023-02-05T04:18:22.975Z,55.55
2023-02-05T04:20:53.106Z,55.21
2023-02-05T04:23:26.034Z,56.38
2023-02-05T04:25:56.407Z,55.51
2023-02-05T04:28:36.113Z,55.33
2023-02-05T04:31:09.560Z,55.50
2023-02-05T04:33:43.046Z,55.21
2023-02-05T04:36:15.489Z,55.86
2023-02-05T04:38:45.394Z,55.82
2023-02-05T04:41:15.573Z,55.58
2023-02-05T04:43:44.908Z,55.63
2023-02-05T04:46:14.533Z,55.73
2023-02-05T04:48:45.297Z,56.41
2023-02-05T04:51:17.274Z,56.87
2023-02-05T04:53:47.112Z,57.00
2023-02-05T04:56:18.515Z,57.00
2023-02-05T04:58:47.964Z,56.30
2023-02-05T05:01:20.274Z,56.94
2023-02-05T05:03:51.596Z,56.73
2023-02-05T05:06:21.643Z,56.54
2023-02-05T05:08:51.027Z,56.41
2023-02-05T05:11:21.331Z,55.77
2023-02-05T05:13:52.096Z,56.34
2023-02-05T05:16:21.820Z,57.04
2023-02-05T05:18:53.816Z,56.08
2023-02-05T05:21:23.360Z,56.98
2023-02-05T05:23:52.566Z,57.03
2023-02-05T05:26:22.095Z,57.20
2023-02-05T05:28:55.361Z,56.72
2023-02-05T05:31:25.660Z,56.83
2023-02-05T05:33:56.258Z,56.52
2023-02-05T05:36:25.825Z,56.39
2023-02-05T05:38:55.022Z,56.12
2023-02-05T05:41:43.578Z,56.62
2023-02-05T05:44:12.964Z,55.95
2023-02-05T05:46:42.596Z,55.79
2023-02-05T05:49:13.113Z,55.89
2023-02-05T05:51:42.674Z,56.89
2023-02-05T05:54:11.876Z,57.87
2023-02-05T05:56:41.626Z,57.78
2023-02-05T05:59:12.360Z,56.85
2023-02-05T06:01:41.944Z,56.13
2023-02-05T06:04:12.513Z,56.99
2023-02-05T06:06:42.660Z,56.15
2023-02-05T06:09:12.101Z,56.49
2023-02-05T06:11:41.668Z,56.23
2023-02-05T06:14:10.827Z,56.09
2023-02-05T06:16:40.746Z,56.61
2023-02-05T06:19:10.233Z,56.55
2023-02-05T06:21:41.169Z,56.95
2023-02-05T06:24:10.597Z,56.25
2023-02-05T06:26:40.298Z,55.98
2023-02-05T06:29:09.454Z,56.08
2023-02-05T06:31:39.133Z,56.39
2023-02-05T06:34:08.406Z,56.15
2023-02-05T06:36:37.836Z,56.54
2023-02-05T06:39:08.334Z,56.29
2023-02-05T06:41:37.828Z,55.94
2023-02-05T06:44:07.252Z,56.04
2023-02-05T06:46:36.872Z,56.08
2023-02-05T06:49:06.195Z,56.08
2023-02-05T06:51:35.603Z,55.70
2023-02-05T06:54:04.816Z,55.29
2023-02-05T06:56:36.014Z,55.01
2023-02-05T06:59:05.372Z,55.27
2023-02-05T07:01:35.055Z,55.57
2023-02-05T07:04:04.384Z,54.32
2023-02-05T07:06:34.104Z,54.71
2023-02-05T07:09:03.467Z,55.31
2023-02-05T07:11:34.503Z,56.04
2023-02-05T07:14:03.871Z,55.23
2023-02-05T07:16:33.668Z,54.68
2023-02-05T07:19:02.941Z,54.84
2023-02-05T07:21:32.573Z,55.32
2023-02-05T07:24:02.048Z,54.75
2023-02-05T07:26:31.616Z,53.83
2023-02-05T07:29:02.277Z,54.95
2023-02-05T07:31:31.864Z,55.39
2023-02-05T07:34:01.537Z,55.00
2023-02-05T07:36:31.048Z,54.39
2023-02-05T07:39:00.231Z,54.75
2023-02-05T07:41:29.849Z,53.96
2023-02-05T07:43:59.467Z,54.46
2023-02-05T07:46:30.556Z,54.92
2023-02-05T07:48:59.844Z,55.01
2023-02-05T07:51:29.913Z,55.13
2023-02-05T07:53:59.222Z,54.99
2023-02-05T07:56:28.796Z,55.57
2023-02-05T07:58:57.985Z,55.68
2023-02-05T08:01:27.528Z,55.59
2023-02-05T08:03:58.182Z,55.21
2023-02-05T08:06:27.918Z,54.48
2023-02-05T08:08:57.167Z,53.86
2023-02-05T08:11:26.894Z,54.15
2023-02-05T08:13:56.190Z,53.98
2023-02-05T08:16:25.814Z,53.86
2023-02-05T08:18:55.006Z,53.86
2023-02-05T08:21:26.036Z,54.02
2023-02-05T08:23:57.313Z,53.19
2023-02-05T08:26:26.980Z,53.05
2023-02-05T08:28:57.720Z,52.93
2023-02-05T08:31:27.651Z,53.57
2023-02-05T08:33:57.875Z,52.94
2023-02-05T08:36:28.929Z,53.39
2023-02-05T08:38:58.480Z,53.31
2023-02-05T08:41:28.127Z,52.77
2023-02-05T08:43:57.677Z,52.69
2023-02-05T08:46:33.829Z,52.02
2023-02-05T08:49:13.045Z,52.56
2023-02-05T08:51:44.234Z,53.75
2023-02-05T08:54:15.396Z,52.43
2023-02-05T08:56:46.197Z,51.98
2023-02-05T08:59:15.638Z,52.39
2023-02-05T09:01:45.880Z,52.61
2023-02-05T09:04:16.372Z,52.32
2023-02-05T09:06:47.826Z,51.77
2023-02-05T09:09:17.172Z,51.84
2023-02-05T09:11:48.209Z,50.76
2023-02-05T09:14:17.749Z,51.21
2023-02-05T09:16:47.281Z,51.40
2023-02-05T09:19:16.539Z,50.88
2023-02-05T09:21:47.535Z,50.39
2023-02-05T09:24:16.838Z,50.14
2023-02-05T09:26:46.471Z,50.53
2023-02-05T09:29:15.621Z,51.15
2023-02-05T09:31:45.382Z,52.00
2023-02-05T09:34:15.137Z,51.07
2023-02-05T09:36:46.271Z,49.95
2023-02-05T09:39:30.781Z,48.73
2023-02-05T09:42:17.225Z,50.90
2023-02-05T09:44:58.066Z,50.65
2023-02-05T09:47:35.665Z,50.76
2023-02-05T09:50:14.619Z,49.40
2023-02-05T09:52:51.103Z,49.64
2023-02-05T09:55:24.907Z,48.22
2023-02-05T09:57:57.875Z,47.91
2023-02-05T10:00:31.577Z,46.96
2023-02-05T10:03:08.896Z,46.33
2023-02-05T10:05:46.814Z,46.63
2023-02-05T10:08:28.153Z,46.44
2023-02-05T10:10:58.863Z,46.57
2023-02-05T10:13:34.436Z,46.75
2023-02-05T10:16:34.528Z,46.57
2023-02-05T10:19:28.154Z,45.79
2023-02-05T10:22:15.738Z,45.04
2023-02-05T10:25:26.309Z,45.16
2023-02-05T10:28:06.930Z,44.73
2023-02-05T10:30:44.560Z,44.95
2023-02-05T10:33:19.813Z,44.64
2023-02-05T10:36:00.659Z,44.06
2023-02-05T10:38:34.837Z,43.19
2023-02-05T10:41:14.091Z,43.73
2023-02-05T10:43:48.962Z,42.83
2023-02-05T10:46:19.510Z,42.32
2023-02-05T10:48:52.294Z,42.22
2023-02-05T10:51:25.790Z,41.22
2023-02-05T10:53:55.123Z,42.32
2023-02-05T10:56:26.031Z,42.28
2023-02-05T10:58:57.404Z,41.55
2023-02-05T11:01:31.795Z,41.65
2023-02-05T11:04:04.653Z,41.26
2023-02-05T11:06:39.287Z,41.93
2023-02-05T11:09:30.717Z,41.32
2023-02-05T11:12:04.730Z,41.43
2023-02-05T11:14:37.650Z,41.50
2023-02-05T11:17:19.945Z,41.57
2023-02-05T11:19:55.831Z,41.11
2023-02-05T11:22:30.694Z,41.27
2023-02-05T11:25:09.073Z,39.18
2023-02-05T11:27:40.569Z,39.45
2023-02-05T11:33:35.443Z,39.56
2023-02-05T11:36:08.186Z,38.30
2023-02-05T11:38:45.717Z,36.26
2023-02-05T11:41:28.310Z,34.92
2023-02-05T11:44:02.029Z,36.34
2023-02-05T11:46:37.989Z,35.88
2023-02-05T11:49:08.132Z,35.86
2023-02-05T11:51:44.698Z,35.14
2023-02-05T11:54:21.912Z,32.26
2023-02-05T11:57:06.596Z,26.65
2023-02-05T11:59:37.825Z,24.66
2023-02-05T12:02:29.759Z,24.88
2023-02-05T12:05:04.098Z,22.45
2023-02-05T12:07:41.247Z,19.06
2023-02-05T12:10:17.921Z,20.52
2023-02-05T12:12:57.563Z,19.36
2023-02-05T12:15:34.966Z,20.77
2023-02-05T12:18:16.687Z,25.01
2023-02-05T12:20:52.335Z,27.92
2023-02-05T12:23:40.724Z,27.65
2023-02-05T12:26:33.679Z,31.91
2023-02-05T12:29:14.101Z,31.28
2023-02-05T12:31:58.184Z,32.53
2023-02-05T12:34:36.034Z,35.17
2023-02-05T12:37:22.533Z,37.31
2023-02-05T12:39:55.553Z,36.71
2023-02-05T12:42:34.859Z,37.89
2023-02-05T12:45:34.648Z,38.15
2023-02-05T12:48:27.183Z,39.27
2023-02-05T12:51:08.685Z,36.42
2023-02-05T12:53:51.700Z,37.40
2023-02-05T12:56:42.850Z,38.64
2023-02-05T12:59:17.510Z,39.86
2023-02-05T13:01:54.705Z,39.46
2023-02-05T13:04:32.705Z,39.33
2023-02-05T13:07:08.572Z,38.41
2023-02-05T13:09:47.942Z,39.88
2023-02-05T13:12:23.270Z,37.36
2023-02-05T13:14:57.850Z,37.93
2023-02-05T13:17:30.055Z,36.52
2023-02-05T13:20:03.189Z,34.87
2023-02-05T13:22:54.339Z,38.41
2023-02-05T13:25:47.211Z,37.10
2023-02-05T13:28:43.753Z,40.86
2023-02-05T13:31:23.703Z,39.39
2023-02-05T13:33:55.160Z,39.62
2023-02-05T13:36:48.318Z,39.45
2023-02-05T13:39:43.504Z,39.34
2023-02-05T13:42:48.571Z,39.23
2023-02-05T13:45:55.502Z,41.07
2023-02-05T13:48:51.237Z,40.49
2023-02-05T13:51:39.104Z,41.66
2023-02-05T13:54:45.956Z,41.05
2023-02-05T13:57:45.854Z,41.34
2023-02-05T14:00:17.825Z,42.10
2023-02-05T14:02:50.333Z,43.11
2023-02-05T14:05:30.722Z,41.33
2023-02-05T14:08:03.525Z,41.88
2023-02-05T14:10:36.336Z,39.46
2023-02-05T14:13:19.377Z,41.12
2023-02-05T14:15:49.328Z,41.09
2023-02-05T14:18:51.497Z,42.49
2023-02-05T14:22:09.993Z,41.76
2023-02-05T14:24:58.324Z,43.00
2023-02-05T14:27:49.664Z,42.38
2023-02-05T14:30:46.965Z,42.17
2023-02-05T14:33:37.232Z,42.31
2023-02-05T14:36:42.944Z,43.02
2023-02-05T14:39:26.757Z,44.86
2023-02-05T14:41:59.808Z,45.44
2023-02-05T14:44:32.963Z,45.27
2023-02-05T14:47:10.307Z,44.98
2023-02-05T14:49:44.419Z,46.56
2023-02-05T14:52:31.537Z,45.80
2023-02-05T14:55:07.533Z,45.92
2023-02-05T14:57:47.978Z,46.71
2023-02-05T15:00:30.667Z,47.05
2023-02-05T15:03:26.809Z,46.49
2023-02-05T15:05:59.448Z,45.09
2023-02-05T15:08:41.554Z,47.16
2023-02-05T15:11:17.049Z,46.04
2023-02-05T15:14:41.603Z,46.98
2023-02-05T15:17:51.151Z,48.32
2023-02-05T15:20:25.018Z,48.73
2023-02-05T15:23:01.488Z,49.53
2023-02-05T15:25:40.706Z,48.36
2023-02-05T15:28:19.854Z,49.10
2023-02-05T15:31:02.823Z,50.17
2023-02-05T15:33:43.298Z,49.45
2023-02-05T15:36:23.409Z,49.72
2023-02-05T15:39:03.784Z,50.48
2023-02-05T15:41:36.143Z,51.97
2023-02-05T15:44:06.159Z,51.91
2023-02-05T15:46:37.193Z,51.31
2023-02-05T15:49:07.677Z,51.15
2023-02-05T15:51:41.224Z,49.98
2023-02-05T15:54:20.259Z,50.90
2023-02-05T15:56:53.132Z,51.58
2023-02-05T15:59:29.417Z,51.43
2023-02-05T16:02:07.241Z,51.76
2023-02-05T16:04:38.514Z,52.11
2023-02-05T16:07:20.531Z,51.60
2023-02-05T16:09:52.918Z,51.71
2023-02-05T16:12:23.576Z,52.05
2023-02-05T16:15:03.651Z,52.02
2023-02-05T16:17:41.214Z,52.70
2023-02-05T16:20:26.678Z,52.54
2023-02-05T16:23:01.583Z,52.20
2023-02-05T16:25:42.782Z,51.40
2023-02-05T16:28:18.957Z,54.10
2023-02-05T16:30:53.764Z,52.92
2023-02-05T16:33:35.012Z,53.49
2023-02-05T16:36:09.275Z,52.71
2023-02-05T16:38:41.857Z,53.21
2023-02-05T16:41:23.438Z,52.96
2023-02-05T16:43:54.863Z,52.78
2023-02-05T16:46:26.986Z,52.56
2023-02-05T16:49:00.124Z,52.80
2023-02-05T16:51:36.681Z,53.03
2023-02-05T16:54:42.465Z,52.49
2023-02-05T16:57:15.867Z,53.27
2023-02-05T16:59:52.863Z,54.03
2023-02-05T17:02:30.484Z,54.00
2023-02-05T17:05:06.504Z,54.03
2023-02-05T17:07:36.362Z,54.27
2023-02-05T17:10:18.152Z,53.83
2023-02-05T17:12:58.310Z,53.08
2023-02-05T17:15:36.843Z,53.99
2023-02-05T17:18:29.947Z,54.48
2023-02-05T17:21:23.116Z,54.04
2023-02-05T17:23:53.658Z,54.92
2023-02-05T17:26:23.528Z,53.00
2023-02-05T17:28:55.795Z,53.83
2023-02-05T17:31:26.573Z,52.89
2023-02-05T17:33:58.414Z,53.38
2023-02-05T17:36:30.382Z,52.71
2023-02-05T17:39:00.180Z,52.66
2023-02-05T17:41:51.079Z,53.39
2023-02-05T17:44:20.782Z,53.37
2023-02-05T17:46:49.958Z,54.26
2023-02-05T17:49:19.405Z,53.80
2023-02-05T17:51:50.243Z,54.26
2023-02-05T17:54:21.547Z,55.36
2023-02-05T17:56:53.688Z,54.35
2023-02-05T17:59:26.036Z,54.03
2023-02-05T18:01:56.778Z,54.64
2023-02-05T18:04:26.585Z,54.75
2023-02-05T18:06:58.752Z,54.55
2023-02-05T18:09:28.418Z,54.63
2023-02-05T18:11:57.924Z,55.69
2023-02-05T18:14:27.538Z,55.76
2023-02-05T18:16:57.051Z,55.80
2023-02-05T18:19:27.054Z,55.56
2023-02-05T18:21:58.383Z,55.74
2023-02-05T18:24:28.213Z,55.79
2023-02-05T18:26:57.768Z,55.47
2023-02-05T18:29:27.965Z,56.55
2023-02-05T18:31:57.356Z,55.49
2023-02-05T18:34:27.679Z,55.39
2023-02-05T18:36:58.627Z,55.80
2023-02-05T18:39:29.684Z,56.04
2023-02-05T18:41:59.674Z,56.42
2023-02-05T18:44:29.812Z,55.57
2023-02-05T18:47:00.363Z,55.45
2023-02-05T18:49:30.152Z,55.71
2023-02-05T18:52:01.000Z,56.25
2023-02-05T18:54:31.116Z,56.31
2023-02-05T18:57:00.923Z,56.81
2023-02-05T18:59:30.727Z,56.55
2023-02-05T19:02:00.232Z,56.55
2023-02-05T19:04:33.198Z,57.05
2023-02-05T19:07:04.396Z,56.58
2023-02-05T19:09:34.231Z,57.37
2023-02-05T19:12:05.902Z,56.96
2023-02-05T19:14:35.736Z,56.27
2023-02-05T19:17:06.123Z,56.24
2023-02-05T19:19:35.882Z,55.94
2023-02-05T19:22:06.664Z,56.50
2023-02-05T19:24:36.464Z,56.36
2023-02-05T19:27:06.190Z,56.64
2023-02-05T19:29:39.738Z,56.17
2023-02-05T19:32:09.562Z,56.11
2023-02-05T19:34:41.167Z,55.96
2023-02-05T19:37:12.488Z,54.83
2023-02-05T19:39:41.988Z,55.63
2023-02-05T19:42:11.382Z,55.35
2023-02-05T19:44:40.969Z,55.96
2023-02-05T19:47:10.444Z,55.48
2023-02-05T19:49:40.818Z,55.94
2023-02-05T19:52:14.988Z,56.21
2023-02-05T19:54:44.705Z,55.98
2023-02-05T19:57:13.946Z,55.91
2023-02-05T19:59:44.153Z,55.51
2023-02-05T20:02:19.483Z,55.40
2023-02-05T20:04:50.657Z,55.39
2023-02-05T20:07:21.373Z,55.66
2023-02-05T20:09:51.537Z,55.91
2023-02-05T20:12:20.839Z,56.15
2023-02-05T20:14:51.197Z,56.49
2023-02-05T20:17:20.653Z,55.92
2023-02-05T20:19:52.146Z,56.21
2023-02-05T20:22:26.080Z,56.98
2023-02-05T20:24:55.629Z,57.11
2023-02-05T20:27:25.047Z,56.92
2023-02-05T20:30:11.344Z,57.12
2023-02-05T20:32:40.847Z,56.89
2023-02-05T20:35:10.750Z,56.65
2023-02-05T20:37:41.420Z,57.62
2023-02-05T20:40:12.440Z,57.12
2023-02-05T20:42:41.930Z,56.15
2023-02-05T20:45:12.506Z,57.19
2023-02-05T20:47:43.398Z,56.71
2023-02-05T20:50:13.078Z,56.06
2023-02-05T20:52:43.859Z,57.37
2023-02-05T20:55:13.971Z,57.15
2023-02-05T20:57:43.412Z,57.05
2023-02-05T21:00:15.124Z,57.02
2023-02-05T21:02:44.229Z,57.80
2023-02-05T21:05:13.866Z,57.98
2023-02-05T21:07:44.686Z,57.56
2023-02-05T21:10:14.358Z,58.29
2023-02-05T21:12:43.619Z,57.50
2023-02-05T21:15:16.642Z,56.58
2023-02-05T21:17:45.882Z,57.53
2023-02-05T21:20:15.397Z,57.80
2023-02-05T21:22:46.114Z,57.27
2023-02-05T21:25:15.701Z,57.18
2023-02-05T21:27:45.236Z,57.16
2023-02-05T21:30:15.368Z,58.26
2023-02-05T21:32:44.723Z,57.73
2023-02-05T21:35:14.247Z,57.88
2023-02-05T21:37:44.882Z,59.32
2023-02-05T21:40:14.716Z,57.50
2023-02-05T21:42:44.182Z,57.58
2023-02-05T21:45:13.725Z,57.94
2023-02-05T21:47:43.009Z,58.48
2023-02-05T21:50:12.702Z,58.02
2023-02-05T21:52:42.592Z,58.39
2023-02-05T21:55:13.598Z,58.33
2023-02-05T21:57:42.840Z,57.90
2023-02-05T22:00:13.722Z,58.14
2023-02-05T22:02:43.002Z,57.77
2023-02-05T22:05:12.654Z,57.59
2023-02-05T22:07:42.143Z,58.24
2023-02-05T22:10:13.170Z,57.72
2023-02-05T22:12:42.363Z,57.11
2023-02-05T22:15:13.522Z,57.80
2023-02-05T22:17:42.673Z,57.80
2023-02-05T22:20:13.413Z,58.29
2023-02-05T22:22:42.557Z,57.80
2023-02-05T22:25:13.375Z,57.63
2023-02-05T22:27:43.188Z,58.17
2023-02-05T22:30:13.721Z,58.16
2023-02-05T22:32:42.978Z,57.90
2023-02-05T22:35:12.469Z,58.42
2023-02-05T22:37:41.617Z,58.92
2023-02-05T22:40:13.703Z,58.86
2023-02-05T22:42:42.881Z,58.41
2023-02-05T22:45:12.456Z,59.20
2023-02-05T22:47:41.564Z,59.92
2023-02-05T22:50:11.402Z,59.54
2023-02-05T22:52:40.652Z,60.62
2023-02-05T22:55:10.179Z,61.08
2023-02-05T22:57:40.759Z,60.53
2023-02-05T23:00:11.171Z,60.16
2023-02-05T23:02:40.373Z,60.18
2023-02-05T23:05:10.159Z,59.69
2023-02-05T23:07:39.353Z,58.93
2023-02-05T23:10:09.195Z,59.24
2023-02-05T23:12:39.746Z,58.31
2023-02-05T23:15:09.743Z,59.17
2023-02-05T23:17:39.147Z,58.47
2023-02-05T23:20:10.734Z,59.16
2023-02-05T23:22:40.145Z,59.27
2023-02-05T23:25:09.880Z,58.44
2023-02-05T23:27:41.379Z,58.54
2023-02-05T23:30:12.108Z,58.79
2023-02-05T23:32:41.542Z,58.60
2023-02-05T23:35:11.157Z,58.68
2023-02-05T23:37:40.320Z,58.40
2023-02-05T23:40:10.763Z,58.02
2023-02-05T23:42:41.308Z,58.43
2023-02-05T23:45:10.903Z,58.28
2023-02-05T23:47:40.128Z,57.75
2023-02-05T23:50:10.484Z,58.08
2023-02-05T23:52:39.714Z,57.71
2023-02-05T23:55:09.760Z,57.61
2023-02-05T23:57:40.321Z,57.97
